Time;durP1;ratioP1;P1;durP2;ratioP2;P2;SDS_P1;SDS_P2;PMS_P1;PMS_P2;Temp;Humidity;BMP_temperature;BMP_pressure;BME280_temperature;BME280_humidity;BME280_pressure;Samples;Min_cycle;Max_cycle;Signal;HPM_P1;HPM_P2
2022/08/09 00:02:22;;;;;;;1999.90;999.90;;;;;;;16.88;100.00;94916.78;5095956;28;20274;-59
2022/08/09 00:04:49;;;;;;;1999.90;999.90;;;;;;;16.82;100.00;94911.09;5095587;28;20183;-62
2022/08/09 00:07:14;;;;;;;1999.90;999.90;;;;;;;16.78;100.00;94895.91;5098526;28;20188;-56
2022/08/09 00:09:40;;;;;;;1999.90;999.90;;;;;;;16.75;100.00;94888.56;5115829;28;20200;-59
2022/08/09 00:12:06;;;;;;;1999.90;999.90;;;;;;;16.69;100.00;94884.84;5098927;28;20191;-58
2022/08/09 00:14:31;;;;;;;1999.90;999.90;;;;;;;16.60;100.00;94873.78;5099440;28;20184;-58
2022/08/09 00:16:57;;;;;;;1999.90;999.90;;;;;;;16.54;100.00;94856.31;5099199;28;20190;-57
2022/08/09 00:19:22;;;;;;;1999.90;999.90;;;;;;;16.48;100.00;94847.88;5098205;28;20204;-57
2022/08/09 00:21:48;;;;;;;1999.90;999.90;;;;;;;16.47;100.00;94840.03;5098627;28;20268;-57
2022/08/09 00:24:13;;;;;;;1999.90;999.90;;;;;;;16.40;100.00;94836.31;5098679;28;20272;-59
2022/08/09 00:26:38;;;;;;;1999.90;999.90;;;;;;;16.35;100.00;94831.41;5098829;28;20184;-62
2022/08/09 00:29:04;;;;;;;1999.90;999.90;;;;;;;16.37;100.00;94826.22;5098596;28;20214;-62
2022/08/09 00:31:30;;;;;;;1999.90;999.90;;;;;;;16.38;100.00;94824.97;5098241;28;20188;-62
2022/08/09 00:33:56;;;;;;;1999.90;999.90;;;;;;;16.36;100.00;94835.69;5098455;28;20183;-62
2022/08/09 00:36:23;;;;;;;1999.90;999.90;;;;;;;16.40;100.00;94828.03;5098282;28;20188;-62
2022/08/09 00:38:48;;;;;;;1999.90;999.90;;;;;;;16.34;100.00;94818.84;5098313;28;20213;-62
2022/08/09 00:41:14;;;;;;;1999.90;999.90;;;;;;;16.29;100.00;94821.44;5098172;28;20176;-61
2022/08/09 00:43:41;;;;;;;1999.90;999.90;;;;;;;16.27;100.00;94813.63;5098360;28;20180;-64
2022/08/09 00:46:08;;;;;;;1999.90;999.90;;;;;;;16.17;100.00;94806.53;5098153;28;20282;-66
2022/08/09 00:48:34;;;;;;;1999.90;999.90;;;;;;;16.18;100.00;94788.75;5097920;28;20196;-66
2022/08/09 00:51:02;;;;;;;1999.90;999.90;;;;;;;16.16;100.00;94785.72;5097728;28;20187;-66
2022/08/09 00:53:28;;;;;;;1999.90;999.90;;;;;;;16.12;100.00;94785.09;5098162;28;20190;-66
2022/08/09 00:55:54;;;;;;;1999.90;999.90;;;;;;;16.09;100.00;94765.94;5097773;28;20216;-66
2022/08/09 00:58:19;;;;;;;1999.90;999.90;;;;;;;16.05;100.00;94749.56;5098044;28;20187;-66
2022/08/09 01:00:46;;;;;;;1999.90;999.90;;;;;;;16.01;100.00;94735.16;5098000;28;20352;-66
2022/08/09 01:03:34;;;;;;;1999.90;999.90;;;;;;;16.00;100.00;94716.31;5098336;28;20230;-63
2022/08/09 01:06:15;;;;;;;1999.90;999.90;;;;;;;16.02;100.00;94708.34;5097508;28;20196;-64
2022/08/09 01:09:23;;;;;;;1999.90;999.90;;;;;;;16.00;100.00;94700.56;5098352;28;20227;-64
2022/08/09 01:12:23;;;;;;;1999.90;999.90;;;;;;;16.01;100.00;94690.31;5098104;28;20188;-65
2022/08/09 01:15:16;;;;;;;1999.90;999.90;;;;;;;15.98;100.00;94696.72;5077260;28;20204;-64
2022/08/09 01:17:58;;;;;;;1999.90;999.90;;;;;;;15.95;100.00;94681.09;5096537;28;20286;-65
2022/08/09 01:20:29;;;;;;;1999.90;999.90;;;;;;;15.97;100.00;94678.66;5097676;28;20207;-62
2022/08/09 01:22:58;;;;;;;1999.90;999.90;;;;;;;15.95;100.00;94670.09;5097826;28;20191;-59
2022/08/09 01:25:50;;;;;;;1999.90;999.90;;;;;;;15.91;100.00;94670.25;5097360;28;20195;-60
2022/08/09 01:28:16;;;;;;;1999.90;999.90;;;;;;;15.90;100.00;94663.22;5097913;28;20253;-59
2022/08/09 01:30:42;;;;;;;1999.90;999.90;;;;;;;15.86;100.00;94654.31;5098029;28;20176;-60
2022/08/09 01:33:10;;;;;;;1999.90;999.90;;;;;;;15.83;100.00;94640.69;5098286;28;20203;-59
2022/08/09 01:35:49;;;;;;;1999.90;999.90;;;;;;;15.82;100.00;94634.44;5097318;28;20287;-58
2022/08/09 01:38:23;;;;;;;1999.90;999.90;;;;;;;15.81;100.00;94632.13;5097593;28;20233;-58
2022/08/09 01:41:00;;;;;;;1999.90;999.90;;;;;;;15.76;100.00;94624.44;5097560;28;20207;-58
2022/08/09 01:43:26;;;;;;;1999.90;999.90;;;;;;;15.75;100.00;94612.69;5097829;28;20187;-57
2022/08/09 01:45:53;;;;;;;1999.90;999.90;;;;;;;15.75;100.00;94600.91;5097526;28;20317;-57
2022/08/09 01:48:20;;;;;;;1999.90;999.90;;;;;;;15.73;100.00;94598.59;5097200;28;20255;-58
2022/08/09 01:50:50;;;;;;;1999.90;999.90;;;;;;;15.70;100.00;94599.50;5097118;28;20188;-57
2022/08/09 01:53:16;;;;;;;1999.90;999.90;;;;;;;15.67;100.00;94600.41;5114554;28;20176;-58
2022/08/09 01:55:44;;;;;;;1999.90;999.90;;;;;;;15.64;100.00;94595.84;5097420;28;20188;-63
2022/08/09 01:58:12;;;;;;;1999.90;999.90;;;;;;;15.64;100.00;94604.09;5096984;28;20184;-64
2022/08/09 02:00:38;;;;;;;1999.90;999.90;;;;;;;15.62;100.00;94601.03;5097336;28;20207;-64
2022/08/09 02:03:05;;;;;;;1999.90;999.90;;;;;;;15.63;100.00;94604.56;5097043;28;20253;-64
2022/08/09 02:05:33;;;;;;;1999.90;999.90;;;;;;;15.59;100.00;94607.44;5097278;28;20191;-64
2022/08/09 02:08:01;;;;;;;1999.90;999.90;;;;;;;15.58;100.00;94608.66;5096730;28;20187;-64
2022/08/09 02:10:31;;;;;;;1999.90;999.90;;;;;;;15.57;100.00;94609.88;5096850;28;20233;-64
2022/08/09 02:13:02;;;;;;;1999.90;999.90;;;;;;;15.54;100.00;94608.03;5096780;28;20188;-64
2022/08/09 02:15:30;;;;;;;1999.90;999.90;;;;;;;15.55;100.00;94604.06;5096696;28;20191;-57
2022/08/09 02:17:57;;;;;;;1999.90;999.90;;;;;;;15.53;100.00;94600.22;5096743;28;20184;-60
2022/08/09 02:20:24;;;;;;;1999.90;999.90;;;;;;;15.50;100.00;94585.41;5096680;28;20294;-60
2022/08/09 02:23:11;;;;;;;1999.90;999.90;;;;;;;15.46;100.00;94589.50;5097109;28;20191;-60
2022/08/09 02:25:40;;;;;;;1999.90;999.90;;;;;;;15.41;100.00;94582.59;5097099;28;20196;-60
2022/08/09 02:28:19;;;;;;;1999.90;999.90;;;;;;;15.36;100.00;94574.19;5096465;28;20180;-60
2022/08/09 02:30:49;;;;;;;1999.90;999.90;;;;;;;15.32;100.00;94568.78;5095534;28;20187;-60
2022/08/09 02:33:27;;;;;;;1999.90;999.90;;;;;;;15.28;100.00;94557.16;5096830;28;20241;-62
2022/08/09 02:35:57;;;;;;;1999.90;999.90;;;;;;;15.21;100.00;94543.69;5096420;28;20269;-64
2022/08/09 02:38:27;;;;;;;1999.90;999.90;;;;;;;15.22;100.00;94525.19;5096295;28;20188;-64
2022/08/09 02:41:05;;;;;;;1999.90;999.90;;;;;;;15.20;100.00;94517.41;5096609;28;20302;-64
2022/08/09 02:43:33;;;;;;;1999.90;999.90;;;;;;;15.19;100.00;94515.13;5096562;28;20282;-64
2022/08/09 02:46:00;;;;;;;1999.90;999.90;;;;;;;15.16;100.00;94522.25;5096297;28;20242;-63
2022/08/09 02:48:28;;;;;;;1999.90;999.90;;;;;;;15.14;100.00;94530.22;5096750;28;20191;-64
2022/08/09 02:50:57;;;;;;;1999.90;999.90;;;;;;;15.14;100.00;94546.72;5096438;28;20184;-58
2022/08/09 02:53:28;;;;;;;1999.90;999.90;;;;;;;15.14;100.00;94554.97;5096272;28;20187;-63
2022/08/09 02:55:57;;;;;;;1999.90;999.90;;;;;;;15.06;100.00;94567.47;5096566;28;20183;-63
2022/08/09 02:58:25;;;;;;;1999.90;999.90;;;;;;;15.07;100.00;94571.75;5096347;28;20194;-64
2022/08/09 03:00:52;;;;;;;1999.90;999.90;;;;;;;15.03;100.00;94579.38;5095874;28;20310;-64
2022/08/09 03:03:20;;;;;;;1999.90;999.90;;;;;;;15.01;100.00;94579.03;5095827;28;20188;-64
2022/08/09 03:05:48;;;;;;;1999.90;999.90;;;;;;;14.98;100.00;94579.97;5096268;28;20232;-65
2022/08/09 03:08:15;;;;;;;1999.90;999.90;;;;;;;15.00;100.00;94569.28;5096321;28;20188;-64
2022/08/09 03:10:42;;;;;;;1999.90;999.90;;;;;;;14.98;100.00;94552.47;5112748;28;20183;-59
2022/08/09 03:13:08;;;;;;;1999.90;999.90;;;;;;;14.98;100.00;94544.22;5096103;28;20195;-59
2022/08/09 03:15:34;;;;;;;1999.90;999.90;;;;;;;14.99;100.00;94523.75;5096347;28;20215;-60
2022/08/09 03:18:01;;;;;;;1999.90;999.90;;;;;;;14.93;100.00;94494.56;5096191;28;20275;-59
2022/08/09 03:20:27;;;;;;;1999.90;999.90;;;;;;;14.95;100.00;94484.63;5095976;28;20208;-59
2022/08/09 03:22:53;;;;;;;1999.90;999.90;;;;;;;14.96;100.00;94466.91;5095712;28;20180;-59
2022/08/09 03:25:19;;;;;;;1999.90;999.90;;;;;;;14.87;100.00;94455.13;5095605;28;20216;-59
2022/08/09 03:27:49;;;;;;;1999.90;999.90;;;;;;;14.84;100.00;94418.31;5095796;28;20270;-59
2022/08/09 03:30:15;;;;;;;1999.90;999.90;;;;;;;14.82;100.00;94393.25;5095717;28;20188;-59
2022/08/09 03:32:41;;;;;;;1999.90;999.90;;;;;;;14.80;100.00;94379.22;5096103;28;20187;-59
2022/08/09 03:35:10;;;;;;;1999.90;999.90;;;;;;;14.80;100.00;94378.44;5095525;28;20210;-60
2022/08/09 03:37:36;;;;;;;1999.90;999.90;;;;;;;14.77;100.00;94380.09;5095547;28;20191;-58
2022/08/09 03:40:02;;;;;;;1999.90;999.90;;;;;;;14.75;100.00;94371.53;5095588;28;20204;-58
2022/08/09 03:42:27;;;;;;;1999.90;999.90;;;;;;;14.75;100.00;94355.06;5099055;28;20252;-59
2022/08/09 03:44:52;;;;;;;1999.90;999.90;;;;;;;14.79;100.00;94352.91;5117268;28;20184;-59
2022/08/09 03:47:18;;;;;;;1999.90;999.90;;;;;;;14.77;100.00;94366.38;5099199;28;20179;-65
2022/08/09 03:49:44;;;;;;;1999.90;999.90;;;;;;;14.73;100.00;94346.50;5099124;28;20205;-57
2022/08/09 03:52:10;;;;;;;1999.90;999.90;;;;;;;14.71;100.00;94348.94;5099064;28;20176;-57
2022/08/09 03:54:38;;;;;;;1999.90;999.90;;;;;;;14.73;100.00;94346.50;5099015;28;20215;-58
2022/08/09 03:57:06;;;;;;;1999.90;999.90;;;;;;;14.74;100.00;94353.53;5116394;28;20179;-63
2022/08/09 03:59:33;;;;;;;1999.90;999.90;;;;;;;14.74;100.00;94356.28;5098723;28;20218;-65
2022/08/09 04:01:59;;;;;;;1999.90;999.90;;;;;;;14.77;100.00;94363.63;5099270;28;20188;-63
2022/08/09 04:04:27;;;;;;;1999.90;999.90;;;;;;;14.71;100.00;94365.44;5116816;28;20263;-62
2022/08/09 04:06:53;;;;;;;1999.90;999.90;;;;;;;14.71;100.00;94359.94;5098739;28;20179;-65
2022/08/09 04:09:18;;;;;;;1999.90;999.90;;;;;;;14.72;100.00;94366.19;5098354;28;20211;-68
2022/08/09 04:11:50;;;;;;;1999.90;999.90;;;;;;;14.72;100.00;94366.94;5099193;28;20240;-68
2022/08/09 04:14:20;;;;;;;1999.90;999.90;;;;;;;14.74;100.00;94372.78;5098600;28;20193;-67
2022/08/09 04:16:45;;;;;;;1999.90;999.90;;;;;;;14.88;100.00;94369.44;5098772;28;20183;-67
2022/08/09 04:19:12;;;;;;;1999.90;999.90;;;;;;;15.13;100.00;94384.91;5098577;28;20207;-67
2022/08/09 04:21:38;;;;;;;1999.90;999.90;;;;;;;15.41;100.00;94425.75;5098384;28;20196;-67
2022/08/09 04:24:04;;;;;;;1999.90;999.90;;;;;;;15.64;100.00;94529.78;5098409;28;20180;-63
2022/08/09 04:26:29;;;;;;;1999.90;999.90;;;;;;;15.94;100.00;94608.75;5098462;28;20190;-62
2022/08/09 04:28:55;;;;;;;1999.90;999.90;;;;;;;16.21;100.00;94704.47;5098241;28;20221;-63
2022/08/09 04:31:20;;;;;;;1999.90;999.90;;;;;;;16.36;100.00;94788.81;5098522;28;20191;-63
2022/08/09 04:33:45;;;;;;;1999.90;999.90;;;;;;;16.48;100.00;94847.88;5098043;28;20193;-64
2022/08/09 04:36:11;;;;;;;1999.90;999.90;;;;;;;16.71;100.00;94885.16;5098381;28;20183;-63
2022/08/09 04:38:36;;;;;;;1999.90;999.90;;;;;;;16.64;100.00;94904.75;5098198;28;20282;-63
2022/08/09 04:41:01;;;;;;;1999.90;999.90;;;;;;;16.62;100.00;94910.72;5098086;28;20207;-64
2022/08/09 04:43:27;;;;;;;1999.90;999.90;;;;;;;16.79;100.00;94919.50;5098574;28;20188;-62
2022/08/09 04:45:52;;;;;;;1999.90;999.90;;;;;;;16.86;100.00;94960.59;5098153;28;20214;-65
2022/08/09 04:48:18;;;;;;;1999.90;999.90;;;;;;;16.90;100.00;94984.06;5097895;28;20196;-65
2022/08/09 04:50:43;;;;;;;1999.90;999.90;;;;;;;16.92;100.00;95011.19;5097955;28;20198;-65
2022/08/09 04:53:09;;;;;;;1999.90;999.90;;;;;;;17.01;100.00;94997.44;5096955;28;20184;-65
2022/08/09 04:55:36;;;;;;;1999.90;999.90;;;;;;;17.32;100.00;95017.47;5097682;28;20187;-65
2022/08/09 04:58:02;;;;;;;1999.90;999.90;;;;;;;17.59;100.00;95075.59;5097767;28;20251;-65
2022/08/09 05:00:27;;;;;;;1999.90;999.90;;;;;;;17.93;100.00;95134.16;5098163;28;20206;-67
2022/08/09 05:02:52;;;;;;;1999.90;999.90;;;;;;;18.64;100.00;95214.94;5098424;28;20183;-62
2022/08/09 05:05:18;;;;;;;1999.90;999.90;;;;;;;19.33;100.00;95315.59;5098369;28;20183;-62
2022/08/09 05:07:43;;;;;;;1999.90;999.90;;;;;;;20.02;100.00;95409.94;5097725;28;20191;-62
2022/08/09 05:10:09;;;;;;;1999.90;999.90;;;;;;;20.83;100.00;95552.16;5097679;28;20235;-62
2022/08/09 05:12:35;;;;;;;1999.90;999.90;;;;;;;20.95;100.00;95687.34;5097744;28;20268;-64
2022/08/09 05:15:00;;;;;;;1999.90;999.90;;;;;;;21.14;100.00;95738.88;5115765;28;20180;-65
2022/08/09 05:17:26;;;;;;;1999.90;999.90;;;;;;;21.67;100.00;95797.69;5115825;28;20184;-65
2022/08/09 05:19:52;;;;;;;1999.90;999.90;;;;;;;21.90;100.00;95836.78;5097539;28;20195;-64
2022/08/09 05:22:17;;;;;;;1999.90;999.90;;;;;;;22.17;100.00;95830.34;5097473;28;20202;-66
2022/08/09 05:24:43;;;;;;;1999.90;999.90;;;;;;;22.30;100.00;95840.06;5097417;28;20188;-64
2022/08/09 05:27:08;;;;;;;1999.90;999.90;;;;;;;22.90;100.00;95853.94;5097115;28;20198;-64
2022/08/09 05:29:34;;;;;;;1999.90;999.90;;;;;;;22.24;100.00;95875.34;5097213;28;20191;-67
2022/08/09 05:31:59;;;;;;;1999.90;999.90;;;;;;;22.62;100.00;95855.31;5097357;28;20274;-64
2022/08/09 05:34:26;;;;;;;1999.90;999.90;;;;;;;23.34;100.00;95887.63;5097740;28;20220;-65
2022/08/09 05:36:51;;;;;;;1999.90;999.90;;;;;;;22.99;100.00;95883.78;5115394;28;20187;-61
2022/08/09 05:39:16;;;;;;;1999.90;999.90;;;;;;;22.65;100.00;95903.72;5097217;28;20203;-62
2022/08/09 05:41:42;;;;;;;1999.90;999.90;;;;;;;23.36;100.00;95902.66;5097089;28;20188;-62
2022/08/09 05:44:08;;;;;;;1999.90;999.90;;;;;;;23.23;100.00;95921.59;5097187;28;20283;-61
2022/08/09 05:46:33;;;;;;;1999.90;999.90;;;;;;;23.43;100.00;95918.25;5097468;28;20252;-61
2022/08/09 05:48:59;;;;;;;1999.90;999.90;;;;;;;24.58;100.00;95931.72;5097224;28;20176;-61
2022/08/09 05:51:24;;;;;;;1999.90;999.90;;;;;;;24.97;100.00;95938.78;5097388;28;20192;-60
2022/08/09 05:53:50;;;;;;;1999.90;999.90;;;;;;;25.82;94.83;95957.09;5097041;28;20224;-60
2022/08/09 05:56:15;;;;;;;1999.90;999.90;;;;;;;26.20;91.17;95970.84;5097106;28;20184;-64
2022/08/09 05:58:40;;;;;;;1999.90;999.90;;;;;;;26.80;87.15;95973.56;5097189;28;20190;-63
2022/08/09 06:01:07;;;;;;;1999.90;999.90;;;;;;;24.91;93.78;95962.31;5096621;28;20273;-61
2022/08/09 06:03:33;;;;;;;1999.90;999.90;;;;;;;25.39;92.03;95969.97;5096496;28;20215;-63
2022/08/09 06:05:58;;;;;;;1999.90;999.90;;;;;;;26.05;92.43;95960.97;5096600;28;20240;-64
2022/08/09 06:08:23;;;;;;;1999.90;999.90;;;;;;;26.43;86.98;95975.44;5096766;28;20187;-65
2022/08/09 06:10:49;;;;;;;1999.90;999.90;;;;;;;26.37;86.99;95965.44;5096883;28;20266;-68
2022/08/09 06:13:14;;;;;;;1999.90;999.90;;;;;;;26.76;83.48;95984.22;5096566;28;20180;-64
2022/08/09 06:15:40;;;;;;;1999.90;999.90;;;;;;;26.33;86.11;95979.66;5096104;28;20184;-60
2022/08/09 06:18:05;;;;;;;1999.90;999.90;;;;;;;26.10;85.73;95977.84;5096153;28;20260;-57
2022/08/09 06:20:31;;;;;;;1999.90;999.90;;;;;;;26.30;84.86;95983.47;5096213;28;20214;-59
2022/08/09 06:22:57;;;;;;;1999.90;999.90;;;;;;;26.42;80.49;95993.53;5096344;28;20187;-61
2022/08/09 06:25:23;;;;;;;1999.90;999.90;;;;;;;26.67;82.71;95984.41;5096362;28;20213;-60
2022/08/09 06:27:48;;;;;;;1999.90;999.90;;;;;;;26.88;78.37;95991.47;5096407;28;20180;-61
2022/08/09 06:30:14;;;;;;;1999.90;999.90;;;;;;;26.54;80.61;95988.78;5096258;28;20234;-59
2022/08/09 06:32:39;;;;;;;1999.90;999.90;;;;;;;26.31;82.91;95981.41;5096615;28;20183;-59
2022/08/09 06:35:06;;;;;;;1999.90;999.90;;;;;;;27.95;73.20;96003.84;5096372;28;20184;-63
2022/08/09 06:37:31;;;;;;;1999.90;999.90;;;;;;;29.02;68.11;96004.53;5096170;28;20190;-63
2022/08/09 06:39:56;;;;;;;1999.90;999.90;;;;;;;29.00;67.23;96001.44;5095941;28;20215;-65
2022/08/09 06:42:22;;;;;;;1999.90;999.90;;;;;;;28.78;64.18;95996.53;5096278;28;20279;-65
2022/08/09 06:44:47;;;;;;;1999.90;999.90;;;;;;;29.39;64.51;96002.25;5096037;28;20257;-63
2022/08/09 06:47:13;;;;;;;1999.90;999.90;;;;;;;29.25;63.30;96017.34;5114313;28;20179;-64
2022/08/09 06:49:39;;;;;;;1999.90;999.90;;;;;;;30.32;57.95;96018.28;5096197;28;20278;-60
2022/08/09 06:52:04;;;;;;;1999.90;999.90;;;;;;;29.49;60.97;96020.44;5096613;28;20183;-60
2022/08/09 06:54:30;;;;;;;1999.90;999.90;;;;;;;30.18;58.99;96016.53;5096069;28;20215;-62
2022/08/09 06:56:55;;;;;;;1999.90;999.90;;;;;;;30.47;57.13;96030.78;5096103;28;20274;-65
2022/08/09 06:59:21;;;;;;;1999.90;999.90;;;;;;;31.05;56.06;96021.03;5096474;28;20263;-63
2022/08/09 07:01:47;;;;;;;1999.90;999.90;;;;;;;29.79;57.76;96022.22;5096049;28;20200;-62
2022/08/09 07:04:12;;;;;;;1999.90;999.90;;;;;;;31.07;53.64;96026.16;5095916;28;20187;-65
2022/08/09 07:06:37;;;;;;;1999.90;999.90;;;;;;;30.81;53.56;96031.44;5095841;28;20207;-62
2022/08/09 07:09:03;;;;;;;1999.90;999.90;;;;;;;30.76;54.16;96026.56;5096180;28;20200;-60
2022/08/09 07:11:28;;;;;;;1999.90;999.90;;;;;;;30.58;53.55;96032.78;5096019;28;20194;-59
2022/08/09 07:13:54;;;;;;;1999.90;999.90;;;;;;;32.38;47.94;96034.03;5095907;28;20179;-61
2022/08/09 07:16:19;;;;;;;1999.90;999.90;;;;;;;31.18;50.10;96034.53;5097515;28;20183;-61
2022/08/09 07:18:44;;;;;;;1999.90;999.90;;;;;;;29.91;53.55;96040.66;5099956;28;20183;-59
2022/08/09 07:21:10;;;;;;;1999.90;999.90;;;;;;;29.66;54.84;96032.47;5099658;28;20235;-62
2022/08/09 07:23:36;;;;;;;1999.90;999.90;;;;;;;30.57;54.60;96034.06;5099410;28;20184;-62
2022/08/09 07:26:02;;;;;;;1999.90;999.90;;;;;;;31.28;48.44;96037.84;5099383;28;20270;-61
2022/08/09 07:28:29;;;;;;;1999.90;999.90;;;;;;;30.52;49.10;96037.69;5099001;28;20218;-60
2022/08/09 07:30:54;;;;;;;1999.90;999.90;;;;;;;30.88;47.27;96042.94;5099376;28;20183;-60
2022/08/09 07:33:20;;;;;;;1999.90;999.90;;;;;;;30.62;49.01;96036.09;5117345;28;20179;-60
2022/08/09 07:35:45;;;;;;;1999.90;999.90;;;;;;;28.61;53.31;96048.38;5099611;28;20176;-61
2022/08/09 07:38:10;;;;;;;1999.90;999.90;;;;;;;28.29;57.57;96037.22;5117462;28;20179;-61
2022/08/09 07:40:35;;;;;;;1999.90;999.90;;;;;;;28.23;57.97;96042.03;5099030;28;20195;-62
2022/08/09 07:43:02;;;;;;;1999.90;999.90;;;;;;;30.45;51.02;96038.22;5099066;28;20180;-61
2022/08/09 07:45:29;;;;;;;1999.90;999.90;;;;;;;29.88;47.45;96049.34;5099069;28;20179;-61
2022/08/09 07:47:57;;;;;;;1999.90;999.90;;;;;;;30.82;46.14;96039.38;5098988;28;20190;-63
2022/08/09 07:50:24;;;;;;;1999.90;999.90;;;;;;;32.49;41.63;96043.19;5098921;28;20180;-61
2022/08/09 07:52:51;;;;;;;1999.90;999.90;;;;;;;30.90;41.76;96057.28;5098694;28;20176;-60
2022/08/09 07:55:16;;;;;;;1999.90;999.90;;;;;;;32.09;41.85;96046.94;5098600;28;20187;-61
2022/08/09 07:57:42;;;;;;;1999.90;999.90;;;;;;;33.72;37.35;96046.63;5098516;28;20179;-60
2022/08/09 08:00:08;;;;;;;1999.90;999.90;;;;;;;33.45;38.19;96051.44;5098657;28;20192;-60
2022/08/09 08:02:34;;;;;;;1999.90;999.90;;;;;;;32.86;37.27;96060.25;5099325;28;20207;-62
2022/08/09 08:04:59;;;;;;;1999.90;999.90;;;;;;;32.92;36.82;96060.91;5099270;28;20267;-61
2022/08/09 08:07:27;;;;;;;1999.90;999.90;;;;;;;33.25;36.89;96060.44;5099405;28;20183;-60
2022/08/09 08:09:53;;;;;;;1999.90;999.90;;;;;;;33.54;35.02;96051.03;5098396;28;20196;-60
2022/08/09 08:12:18;;;;;;;1999.90;999.90;;;;;;;33.38;36.53;96056.94;5099123;28;20244;-60
2022/08/09 08:14:44;;;;;;;1999.90;999.90;;;;;;;34.61;34.15;96052.25;5098688;28;20175;-60
2022/08/09 08:17:09;;;;;;;1999.90;999.90;;;;;;;31.65;40.43;96055.78;5098468;28;20184;-60
2022/08/09 08:19:35;;;;;;;1999.90;999.90;;;;;;;32.01;40.54;96054.44;5098361;28;20207;-60
2022/08/09 08:22:01;;;;;;;1999.90;999.90;;;;;;;32.67;38.74;96050.91;5098539;28;20186;-61
2022/08/09 08:24:26;;;;;;;1999.90;999.90;;;;;;;34.69;34.37;96055.19;5098492;28;20187;-62
2022/08/09 08:26:51;;;;;;;1999.90;999.90;;;;;;;32.95;34.79;96054.19;5098432;28;20274;-62
2022/08/09 08:29:18;;;;;;;1999.90;999.90;;;;;;;30.59;38.68;96071.75;5098490;28;20176;-59
2022/08/09 08:31:44;;;;;;;1999.90;999.90;;;;;;;30.36;39.79;96073.13;5098124;28;20219;-61
2022/08/09 08:34:09;;;;;;;1999.90;999.90;;;;;;;31.01;39.88;96076.22;5098210;28;20190;-62
2022/08/09 08:36:35;;;;;;;1999.90;999.90;;;;;;;31.00;39.99;96060.56;5098200;28;20207;-64
2022/08/09 08:39:01;;;;;;;1999.90;999.90;;;;;;;30.68;39.48;96056.59;5098064;28;20203;-68
2022/08/09 08:41:27;;;;;;;1999.90;999.90;;;;;;;30.90;39.24;96067.81;5098119;28;20244;-63
2022/08/09 08:43:52;;;;;;;1999.90;999.90;;;;;;;31.37;37.23;96066.53;5116175;28;20228;-59
2022/08/09 08:46:21;;;;;;;1999.90;999.90;;;;;;;31.14;37.08;96053.81;5098160;28;20263;-62
2022/08/09 08:48:47;;;;;;;1999.90;999.90;;;;;;;31.84;35.28;96053.06;5098293;28;20175;-58
2022/08/09 08:51:13;;;;;;;1999.90;999.90;;;;;;;31.42;39.76;96057.25;5097905;28;20186;-61
2022/08/09 08:53:38;;;;;;;1999.90;999.90;;;;;;;32.40;39.25;96046.34;5097966;28;20208;-59
2022/08/09 08:56:05;;;;;;;1999.90;999.90;;;;;;;30.92;36.79;96060.34;5098242;28;20187;-62
2022/08/09 08:58:32;;;;;;;1999.90;999.90;;;;;;;31.06;37.10;96058.47;5097813;28;20276;-60
2022/08/09 09:00:57;;;;;;;1999.90;999.90;;;;;;;30.71;38.53;96056.34;5098345;28;20269;-59
2022/08/09 09:03:32;;;;;;;1999.90;999.90;;;;;;;30.33;38.69;96059.28;5097786;28;20180;-60
2022/08/09 09:05:59;;;;;;;1999.90;999.90;;;;;;;30.38;37.85;96055.69;5098302;28;20236;-61
2022/08/09 09:08:27;;;;;;;1999.90;999.90;;;;;;;31.43;36.61;96061.63;5097575;28;20190;-59
2022/08/09 09:10:53;;;;;;;1999.90;999.90;;;;;;;29.85;39.31;96053.19;5097650;28;20180;-59
2022/08/09 09:13:19;;;;;;;1999.90;999.90;;;;;;;30.43;38.20;96044.38;5097443;28;20218;-60
2022/08/09 09:15:45;;;;;;;1999.90;999.90;;;;;;;30.33;39.09;96051.59;5097539;28;20172;-60
2022/08/09 09:18:15;;;;;;;1999.90;999.90;;;;;;;30.40;37.86;96044.66;5115633;28;20183;-59
2022/08/09 09:20:42;;;;;;;1999.90;999.90;;;;;;;32.09;36.68;96046.94;5115494;28;20238;-63
2022/08/09 09:23:07;;;;;;;1999.90;999.90;;;;;;;31.61;35.90;96041.16;5097472;28;20192;-68
2022/08/09 09:25:43;;;;;;;1999.90;999.90;;;;;;;30.84;37.04;96047.31;5097362;28;20267;-67
2022/08/09 09:28:10;;;;;;;1999.90;999.90;;;;;;;29.57;39.05;96050.38;5097833;28;20183;-64
2022/08/09 09:30:54;;;;;;;1999.90;999.90;;;;;;;31.25;36.64;96048.13;5098104;28;20190;-70
2022/08/09 09:33:29;;;;;;;1999.90;999.90;;;;;;;30.72;37.84;96051.47;5097335;28;20244;-62
2022/08/09 09:35:56;;;;;;;1999.90;999.90;;;;;;;28.61;40.89;96073.69;5097574;28;20175;-62
2022/08/09 09:38:37;;;;;;;1999.90;999.90;;;;;;;31.10;37.73;96044.88;5096660;28;20179;-62
2022/08/09 09:41:02;;;;;;;1999.90;999.90;;;;;;;32.37;35.01;96055.91;5097583;28;20341;-61
2022/08/09 09:43:28;;;;;;;1999.90;999.90;;;;;;;30.94;36.53;96051.38;5097283;28;20188;-62
2022/08/09 09:45:53;;;;;;;1999.90;999.90;;;;;;;31.83;35.62;96055.13;5097254;28;20183;-61
2022/08/09 09:48:20;;;;;;;1999.90;999.90;;;;;;;31.81;35.46;96066.22;5097435;28;20180;-61
2022/08/09 09:50:49;;;;;;;1999.90;999.90;;;;;;;31.54;35.84;96053.06;5096914;28;20247;-59
2022/08/09 09:53:20;;;;;;;1999.90;999.90;;;;;;;31.01;35.85;96060.06;5097000;28;20185;-61
2022/08/09 09:55:58;;;;;;;1999.90;999.90;;;;;;;32.21;33.04;96048.34;5097093;28;20179;-62
2022/08/09 09:58:26;;;;;;;1999.90;999.90;;;;;;;31.14;35.81;96046.09;5097104;28;20252;-62
2022/08/09 10:00:56;;;;;;;1999.90;999.90;;;;;;;29.67;37.98;96059.34;5096727;28;20205;-63
2022/08/09 10:03:41;;;;;;;1999.90;999.90;;;;;;;31.11;36.72;96043.56;5096635;28;20187;-61
2022/08/09 10:06:06;;;;;;;1999.90;999.90;;;;;;;29.77;37.64;96052.19;5096667;28;20183;-63
2022/08/09 10:08:32;;;;;;;1999.90;999.90;;;;;;;30.18;38.18;96075.72;5097010;28;20198;-62
2022/08/09 10:10:57;;;;;;;1999.90;999.90;;;;;;;31.31;37.38;96050.91;5096693;28;20176;-62
2022/08/09 10:13:23;;;;;;;1999.90;999.90;;;;;;;29.77;39.27;96047.34;5096651;28;20208;-63
2022/08/09 10:15:50;;;;;;;1999.90;999.90;;;;;;;30.52;37.75;96052.53;5097375;28;20179;-65
2022/08/09 10:18:16;;;;;;;1999.90;999.90;;;;;;;29.82;40.49;96048.63;5096506;28;20191;-64
2022/08/09 10:20:42;;;;;;;1999.90;999.90;;;;;;;30.39;38.73;96045.94;5096241;28;20280;-64
2022/08/09 10:23:19;;;;;;;1999.90;999.90;;;;;;;30.68;37.81;96050.94;5096934;28;20191;-62
2022/08/09 10:25:45;;;;;;;1999.90;999.90;;;;;;;29.57;40.57;96036.28;5096497;28;20182;-63
2022/08/09 10:28:12;;;;;;;1999.90;999.90;;;;;;;28.74;42.44;96045.88;5096159;28;20186;-63
2022/08/09 10:30:37;;;;;;;1999.90;999.90;;;;;;;30.21;41.73;96040.88;5096127;28;20184;-62
2022/08/09 10:33:03;;;;;;;1999.90;999.90;;;;;;;30.68;38.66;96028.38;5096328;28;20256;-60
2022/08/09 10:35:30;;;;;;;1999.90;999.90;;;;;;;28.87;41.41;96027.22;5096680;28;20215;-60
2022/08/09 10:37:58;;;;;;;1999.90;999.90;;;;;;;29.48;41.30;96041.41;5096685;28;20191;-61
2022/08/09 10:40:23;;;;;;;1999.90;999.90;;;;;;;29.10;41.41;96033.72;5096129;28;20210;-62
2022/08/09 10:42:49;;;;;;;1999.90;999.90;;;;;;;29.26;44.77;96035.78;5096389;28;20266;-61
2022/08/09 10:45:16;;;;;;;1999.90;999.90;;;;;;;29.49;43.68;96026.06;5096185;28;20175;-60
2022/08/09 10:47:55;;;;;;;1999.90;999.90;;;;;;;29.49;42.77;96029.63;5095707;28;20179;-63
2022/08/09 10:51:08;;;;;;;1999.90;999.90;;;;;;;30.79;41.83;96028.34;5095164;28;20191;-62
2022/08/09 10:53:52;;;;;;;1999.90;999.90;;;;;;;28.29;45.09;96028.03;5096036;28;20183;-61